sensor_id;sensor_type;location;lat;lon;timestamp;temperature;humidity
2647;DHT22;1333;50.958;6.770;2024-02-16T00:01:58;12.30;99.90
2647;DHT22;1333;50.958;6.770;2024-02-16T00:04:23;12.30;99.90
2647;DHT22;1333;50.958;6.770;2024-02-16T00:06:49;12.30;99.90
2647;DHT22;1333;50.958;6.770;2024-02-16T00:09:14;12.30;99.90
2647;DHT22;1333;50.958;6.770;2024-02-16T00:11:40;12.30;99.90
2647;DHT22;1333;50.958;6.770;2024-02-16T00:14:05;12.30;99.90
2647;DHT22;1333;50.958;6.770;2024-02-16T00:16:31;12.30;99.90
2647;DHT22;1333;50.958;6.770;2024-02-16T00:18:57;12.20;99.90
2647;DHT22;1333;50.958;6.770;2024-02-16T00:21:22;12.20;99.90
2647;DHT22;1333;50.958;6.770;2024-02-16T00:23:47;12.20;99.90
2647;DHT22;1333;50.958;6.770;2024-02-16T00:26:13;12.20;99.90
2647;DHT22;1333;50.958;6.770;2024-02-16T00:28:38;12.20;99.90
2647;DHT22;1333;50.958;6.770;2024-02-16T00:31:05;12.20;99.90
2647;DHT22;1333;50.958;6.770;2024-02-16T00:33:31;12.30;99.90
2647;DHT22;1333;50.958;6.770;2024-02-16T00:35:56;12.30;99.90
2647;DHT22;1333;50.958;6.770;2024-02-16T00:38:22;12.30;99.90
2647;DHT22;1333;50.958;6.770;2024-02-16T00:40:48;12.40;99.90
2647;DHT22;1333;50.958;6.770;2024-02-16T00:43:15;12.40;99.90
2647;DHT22;1333;50.958;6.770;2024-02-16T00:45:41;12.40;99.90
2647;DHT22;1333;50.958;6.770;2024-02-16T00:48:09;12.50;99.90
2647;DHT22;1333;50.958;6.770;2024-02-16T00:50:35;12.60;99.90
2647;DHT22;1333;50.958;6.770;2024-02-16T00:53:00;12.50;99.90
2647;DHT22;1333;50.958;6.770;2024-02-16T00:55:26;12.50;99.90
2647;DHT22;1333;50.958;6.770;2024-02-16T00:57:51;12.60;99.90
2647;DHT22;1333;50.958;6.770;2024-02-16T01:00:17;12.70;99.90
2647;DHT22;1333;50.958;6.770;2024-02-16T01:02:44;12.60;99.90
2647;DHT22;1333;50.958;6.770;2024-02-16T01:05:10;12.60;99.90
2647;DHT22;1333;50.958;6.770;2024-02-16T01:07:36;12.70;99.90
2647;DHT22;1333;50.958;6.770;2024-02-16T01:10:02;12.70;99.90
2647;DHT22;1333;50.958;6.770;2024-02-16T01:12:28;12.60;99.90
2647;DHT22;1333;50.958;6.770;2024-02-16T01:14:56;12.60;99.90
2647;DHT22;1333;50.958;6.770;2024-02-16T01:17:22;12.60;99.90
2647;DHT22;1333;50.958;6.770;2024-02-16T01:19:47;12.70;99.90
2647;DHT22;1333;50.958;6.770;2024-02-16T01:22:13;12.60;99.90
2647;DHT22;1333;50.958;6.770;2024-02-16T01:24:39;12.60;99.90
2647;DHT22;1333;50.958;6.770;2024-02-16T01:27:04;12.70;99.90
2647;DHT22;1333;50.958;6.770;2024-02-16T01:29:30;12.60;99.90
2647;DHT22;1333;50.958;6.770;2024-02-16T01:31:57;12.70;99.90
2647;DHT22;1333;50.958;6.770;2024-02-16T01:34:23;12.60;99.90
2647;DHT22;1333;50.958;6.770;2024-02-16T01:36:48;12.60;99.90
2647;DHT22;1333;50.958;6.770;2024-02-16T01:39:14;12.60;99.90
2647;DHT22;1333;50.958;6.770;2024-02-16T01:41:39;12.70;99.90
2647;DHT22;1333;50.958;6.770;2024-02-16T01:44:05;12.60;99.90
2647;DHT22;1333;50.958;6.770;2024-02-16T01:46:31;12.50;99.90
2647;DHT22;1333;50.958;6.770;2024-02-16T01:48:57;12.60;99.90
2647;DHT22;1333;50.958;6.770;2024-02-16T01:51:24;12.60;99.90
2647;DHT22;1333;50.958;6.770;2024-02-16T01:53:51;12.60;99.90
2647;DHT22;1333;50.958;6.770;2024-02-16T01:56:19;12.60;99.90
2647;DHT22;1333;50.958;6.770;2024-02-16T01:58:46;12.50;99.90
2647;DHT22;1333;50.958;6.770;2024-02-16T02:01:12;12.50;99.90
2647;DHT22;1333;50.958;6.770;2024-02-16T02:03:38;12.60;99.90
2647;DHT22;1333;50.958;6.770;2024-02-16T02:06:03;12.60;99.90
2647;DHT22;1333;50.958;6.770;2024-02-16T02:08:29;12.60;99.90
2647;DHT22;1333;50.958;6.770;2024-02-16T02:10:54;12.70;99.90
2647;DHT22;1333;50.958;6.770;2024-02-16T02:13:20;12.70;99.90
2647;DHT22;1333;50.958;6.770;2024-02-16T02:15:47;12.70;99.90
2647;DHT22;1333;50.958;6.770;2024-02-16T02:18:13;12.70;99.90
2647;DHT22;1333;50.958;6.770;2024-02-16T02:20:38;12.70;99.90
2647;DHT22;1333;50.958;6.770;2024-02-16T02:23:04;12.70;99.90
2647;DHT22;1333;50.958;6.770;2024-02-16T02:25:30;12.70;99.90
2647;DHT22;1333;50.958;6.770;2024-02-16T02:27:56;12.60;99.90
2647;DHT22;1333;50.958;6.770;2024-02-16T02:30:22;12.70;99.90
2647;DHT22;1333;50.958;6.770;2024-02-16T02:32:49;12.70;99.90
2647;DHT22;1333;50.958;6.770;2024-02-16T02:35:16;12.70;99.90
2647;DHT22;1333;50.958;6.770;2024-02-16T02:37:43;12.70;99.90
2647;DHT22;1333;50.958;6.770;2024-02-16T02:40:09;12.70;99.90
2647;DHT22;1333;50.958;6.770;2024-02-16T02:42:35;12.70;99.90
2647;DHT22;1333;50.958;6.770;2024-02-16T02:45:01;12.80;99.90
2647;DHT22;1333;50.958;6.770;2024-02-16T02:47:27;12.80;99.90
2647;DHT22;1333;50.958;6.770;2024-02-16T02:49:52;12.70;99.90
2647;DHT22;1333;50.958;6.770;2024-02-16T02:52:19;12.70;99.90
2647;DHT22;1333;50.958;6.770;2024-02-16T02:54:44;12.80;99.90
2647;DHT22;1333;50.958;6.770;2024-02-16T02:57:10;12.70;99.90
2647;DHT22;1333;50.958;6.770;2024-02-16T02:59:35;12.70;99.90
2647;DHT22;1333;50.958;6.770;2024-02-16T03:02:01;12.70;99.90
2647;DHT22;1333;50.958;6.770;2024-02-16T03:04:26;12.80;99.90
2647;DHT22;1333;50.958;6.770;2024-02-16T03:06:52;12.80;99.90
2647;DHT22;1333;50.958;6.770;2024-02-16T03:09:18;12.70;99.90
2647;DHT22;1333;50.958;6.770;2024-02-16T03:11:43;12.70;99.90
2647;DHT22;1333;50.958;6.770;2024-02-16T03:14:09;12.70;99.90
2647;DHT22;1333;50.958;6.770;2024-02-16T03:16:34;12.70;99.90
2647;DHT22;1333;50.958;6.770;2024-02-16T03:19:00;12.70;99.90
2647;DHT22;1333;50.958;6.770;2024-02-16T03:21:25;12.60;99.90
2647;DHT22;1333;50.958;6.770;2024-02-16T03:23:51;12.60;99.90
2647;DHT22;1333;50.958;6.770;2024-02-16T03:26:18;12.60;99.90
2647;DHT22;1333;50.958;6.770;2024-02-16T03:28:45;12.60;99.90
2647;DHT22;1333;50.958;6.770;2024-02-16T03:31:21;12.60;99.90
2647;DHT22;1333;50.958;6.770;2024-02-16T03:33:48;12.60;99.90
2647;DHT22;1333;50.958;6.770;2024-02-16T03:36:14;12.60;99.90
2647;DHT22;1333;50.958;6.770;2024-02-16T03:38:47;12.60;99.90
2647;DHT22;1333;50.958;6.770;2024-02-16T03:41:18;12.60;99.90
2647;DHT22;1333;50.958;6.770;2024-02-16T03:43:44;12.50;99.90
2647;DHT22;1333;50.958;6.770;2024-02-16T03:46:10;12.50;99.90
2647;DHT22;1333;50.958;6.770;2024-02-16T03:48:36;12.40;99.90
2647;DHT22;1333;50.958;6.770;2024-02-16T03:51:02;12.40;99.90
2647;DHT22;1333;50.958;6.770;2024-02-16T03:53:31;12.40;99.90
2647;DHT22;1333;50.958;6.770;2024-02-16T03:55:56;12.40;99.90
2647;DHT22;1333;50.958;6.770;2024-02-16T03:58:22;12.20;99.90
2647;DHT22;1333;50.958;6.770;2024-02-16T04:00:48;12.20;99.90
2647;DHT22;1333;50.958;6.770;2024-02-16T04:03:18;12.30;99.90
2647;DHT22;1333;50.958;6.770;2024-02-16T04:05:44;12.30;99.90
2647;DHT22;1333;50.958;6.770;2024-02-16T04:08:10;12.40;99.90
2647;DHT22;1333;50.958;6.770;2024-02-16T04:10:35;12.40;99.90
2647;DHT22;1333;50.958;6.770;2024-02-16T04:13:02;12.50;99.90
2647;DHT22;1333;50.958;6.770;2024-02-16T04:15:27;12.40;99.90
2647;DHT22;1333;50.958;6.770;2024-02-16T04:17:53;12.50;99.90
2647;DHT22;1333;50.958;6.770;2024-02-16T04:20:19;12.50;99.90
2647;DHT22;1333;50.958;6.770;2024-02-16T04:22:45;12.40;99.90
2647;DHT22;1333;50.958;6.770;2024-02-16T04:25:11;12.40;99.90
2647;DHT22;1333;50.958;6.770;2024-02-16T04:27:37;12.50;99.90
2647;DHT22;1333;50.958;6.770;2024-02-16T04:30:04;12.50;99.90
2647;DHT22;1333;50.958;6.770;2024-02-16T04:32:30;12.50;99.90
2647;DHT22;1333;50.958;6.770;2024-02-16T04:34:56;12.60;99.90
2647;DHT22;1333;50.958;6.770;2024-02-16T04:37:22;12.60;99.90
2647;DHT22;1333;50.958;6.770;2024-02-16T04:39:49;12.70;99.90
2647;DHT22;1333;50.958;6.770;2024-02-16T04:42:14;12.70;99.90
2647;DHT22;1333;50.958;6.770;2024-02-16T04:44:40;12.70;99.90
2647;DHT22;1333;50.958;6.770;2024-02-16T04:47:05;12.80;99.90
2647;DHT22;1333;50.958;6.770;2024-02-16T04:49:32;12.90;99.90
2647;DHT22;1333;50.958;6.770;2024-02-16T04:51:58;13.00;99.90
2647;DHT22;1333;50.958;6.770;2024-02-16T04:54:24;13.00;99.90
2647;DHT22;1333;50.958;6.770;2024-02-16T04:56:50;13.10;99.90
2647;DHT22;1333;50.958;6.770;2024-02-16T04:59:16;13.10;99.90
2647;DHT22;1333;50.958;6.770;2024-02-16T05:01:45;13.10;99.90
2647;DHT22;1333;50.958;6.770;2024-02-16T05:04:11;13.20;99.90
2647;DHT22;1333;50.958;6.770;2024-02-16T05:06:39;13.10;99.90
2647;DHT22;1333;50.958;6.770;2024-02-16T05:09:05;13.20;99.90
2647;DHT22;1333;50.958;6.770;2024-02-16T05:11:34;13.10;99.90
2647;DHT22;1333;50.958;6.770;2024-02-16T05:14:00;13.00;99.90
2647;DHT22;1333;50.958;6.770;2024-02-16T05:16:26;13.00;99.90
2647;DHT22;1333;50.958;6.770;2024-02-16T05:18:52;13.00;99.90
2647;DHT22;1333;50.958;6.770;2024-02-16T05:21:18;12.90;99.90
2647;DHT22;1333;50.958;6.770;2024-02-16T05:23:43;12.90;99.90
2647;DHT22;1333;50.958;6.770;2024-02-16T05:26:09;12.90;99.90
2647;DHT22;1333;50.958;6.770;2024-02-16T05:28:34;12.80;99.90
2647;DHT22;1333;50.958;6.770;2024-02-16T05:31:20;12.80;99.90
2647;DHT22;1333;50.958;6.770;2024-02-16T05:33:50;12.70;99.90
2647;DHT22;1333;50.958;6.770;2024-02-16T05:36:20;12.70;99.90
2647;DHT22;1333;50.958;6.770;2024-02-16T05:38:48;12.70;99.90
2647;DHT22;1333;50.958;6.770;2024-02-16T05:41:15;12.70;99.90
2647;DHT22;1333;50.958;6.770;2024-02-16T05:43:43;12.60;99.90
2647;DHT22;1333;50.958;6.770;2024-02-16T05:46:16;12.60;99.90
2647;DHT22;1333;50.958;6.770;2024-02-16T05:48:42;12.60;99.90
2647;DHT22;1333;50.958;6.770;2024-02-16T05:51:08;12.50;99.90
2647;DHT22;1333;50.958;6.770;2024-02-16T05:53:34;12.50;99.90
2647;DHT22;1333;50.958;6.770;2024-02-16T05:56:00;12.50;99.90
2647;DHT22;1333;50.958;6.770;2024-02-16T05:58:26;12.50;99.90
2647;DHT22;1333;50.958;6.770;2024-02-16T06:00:51;12.50;99.90
2647;DHT22;1333;50.958;6.770;2024-02-16T06:03:17;12.50;99.90
2647;DHT22;1333;50.958;6.770;2024-02-16T06:05:43;12.50;99.90
2647;DHT22;1333;50.958;6.770;2024-02-16T06:08:12;12.50;99.90
2647;DHT22;1333;50.958;6.770;2024-02-16T06:10:37;12.60;99.90
2647;DHT22;1333;50.958;6.770;2024-02-16T06:13:03;12.60;99.90
2647;DHT22;1333;50.958;6.770;2024-02-16T06:15:29;12.50;99.90
2647;DHT22;1333;50.958;6.770;2024-02-16T06:17:56;12.50;99.90
2647;DHT22;1333;50.958;6.770;2024-02-16T06:20:21;12.50;99.90
2647;DHT22;1333;50.958;6.770;2024-02-16T06:22:47;12.50;99.90
2647;DHT22;1333;50.958;6.770;2024-02-16T06:25:14;12.50;99.90
2647;DHT22;1333;50.958;6.770;2024-02-16T06:27:40;12.50;99.90
2647;DHT22;1333;50.958;6.770;2024-02-16T06:30:07;12.50;99.90
2647;DHT22;1333;50.958;6.770;2024-02-16T06:32:35;12.50;99.90
2647;DHT22;1333;50.958;6.770;2024-02-16T06:35:01;12.60;99.90
2647;DHT22;1333;50.958;6.770;2024-02-16T06:37:26;12.60;99.90
2647;DHT22;1333;50.958;6.770;2024-02-16T06:39:52;12.60;99.90
2647;DHT22;1333;50.958;6.770;2024-02-16T06:42:17;12.60;99.90
2647;DHT22;1333;50.958;6.770;2024-02-16T06:44:43;12.70;99.90
2647;DHT22;1333;50.958;6.770;2024-02-16T06:47:08;12.80;99.90
2647;DHT22;1333;50.958;6.770;2024-02-16T06:49:34;12.70;99.90
2647;DHT22;1333;50.958;6.770;2024-02-16T06:51:59;12.80;99.90
2647;DHT22;1333;50.958;6.770;2024-02-16T06:54:25;12.90;99.90
2647;DHT22;1333;50.958;6.770;2024-02-16T06:56:50;12.90;99.90
2647;DHT22;1333;50.958;6.770;2024-02-16T06:59:17;13.00;99.90
2647;DHT22;1333;50.958;6.770;2024-02-16T07:01:42;13.10;99.90
2647;DHT22;1333;50.958;6.770;2024-02-16T07:04:08;13.00;99.90
2647;DHT22;1333;50.958;6.770;2024-02-16T07:06:34;13.00;99.90
2647;DHT22;1333;50.958;6.770;2024-02-16T07:09:00;13.10;99.90
2647;DHT22;1333;50.958;6.770;2024-02-16T07:11:26;13.10;99.90
2647;DHT22;1333;50.958;6.770;2024-02-16T07:13:51;13.20;99.90
2647;DHT22;1333;50.958;6.770;2024-02-16T07:16:17;13.20;99.90
2647;DHT22;1333;50.958;6.770;2024-02-16T07:18:43;13.30;99.90
2647;DHT22;1333;50.958;6.770;2024-02-16T07:21:09;13.20;99.90
2647;DHT22;1333;50.958;6.770;2024-02-16T07:23:34;13.30;99.90
2647;DHT22;1333;50.958;6.770;2024-02-16T07:26:00;13.30;99.90
2647;DHT22;1333;50.958;6.770;2024-02-16T07:28:27;13.40;99.90
2647;DHT22;1333;50.958;6.770;2024-02-16T07:30:53;13.40;99.90
2647;DHT22;1333;50.958;6.770;2024-02-16T07:33:18;13.50;99.90
2647;DHT22;1333;50.958;6.770;2024-02-16T07:35:44;13.60;99.90
2647;DHT22;1333;50.958;6.770;2024-02-16T07:38:10;13.60;99.90
2647;DHT22;1333;50.958;6.770;2024-02-16T07:40:36;13.60;99.90
2647;DHT22;1333;50.958;6.770;2024-02-16T07:43:01;13.70;99.90
2647;DHT22;1333;50.958;6.770;2024-02-16T07:45:28;13.60;99.90
2647;DHT22;1333;50.958;6.770;2024-02-16T07:47:54;13.60;99.90
2647;DHT22;1333;50.958;6.770;2024-02-16T07:50:21;13.70;99.90
2647;DHT22;1333;50.958;6.770;2024-02-16T07:52:47;13.80;99.90
2647;DHT22;1333;50.958;6.770;2024-02-16T07:55:13;13.80;99.90
2647;DHT22;1333;50.958;6.770;2024-02-16T07:57:39;13.70;99.90
2647;DHT22;1333;50.958;6.770;2024-02-16T08:00:06;13.70;99.90
2647;DHT22;1333;50.958;6.770;2024-02-16T08:02:32;13.70;99.90
2647;DHT22;1333;50.958;6.770;2024-02-16T08:04:58;13.70;99.90
2647;DHT22;1333;50.958;6.770;2024-02-16T08:07:24;13.80;99.90
2647;DHT22;1333;50.958;6.770;2024-02-16T08:09:50;13.90;99.90
2647;DHT22;1333;50.958;6.770;2024-02-16T08:12:16;13.90;99.90
2647;DHT22;1333;50.958;6.770;2024-02-16T08:14:42;13.90;99.90
2647;DHT22;1333;50.958;6.770;2024-02-16T08:17:09;13.90;99.90
2647;DHT22;1333;50.958;6.770;2024-02-16T08:19:36;14.00;99.90
2647;DHT22;1333;50.958;6.770;2024-02-16T08:22:06;14.10;99.90
2647;DHT22;1333;50.958;6.770;2024-02-16T08:24:33;14.10;99.90
2647;DHT22;1333;50.958;6.770;2024-02-16T08:26:59;14.30;99.90
2647;DHT22;1333;50.958;6.770;2024-02-16T08:29:24;14.30;99.90
2647;DHT22;1333;50.958;6.770;2024-02-16T08:31:54;14.40;99.90
2647;DHT22;1333;50.958;6.770;2024-02-16T08:34:20;14.50;99.90
2647;DHT22;1333;50.958;6.770;2024-02-16T08:36:49;14.60;99.90
2647;DHT22;1333;50.958;6.770;2024-02-16T08:39:16;14.60;99.90
2647;DHT22;1333;50.958;6.770;2024-02-16T08:41:42;14.70;99.90
2647;DHT22;1333;50.958;6.770;2024-02-16T08:44:09;14.80;99.90
2647;DHT22;1333;50.958;6.770;2024-02-16T08:46:36;14.80;99.90
2647;DHT22;1333;50.958;6.770;2024-02-16T08:49:02;14.80;99.90
2647;DHT22;1333;50.958;6.770;2024-02-16T08:51:28;14.90;99.90
2647;DHT22;1333;50.958;6.770;2024-02-16T08:53:54;14.90;99.90
2647;DHT22;1333;50.958;6.770;2024-02-16T08:56:19;14.90;99.90
2647;DHT22;1333;50.958;6.770;2024-02-16T08:58:45;14.90;99.90
2647;DHT22;1333;50.958;6.770;2024-02-16T09:01:10;14.90;99.90
2647;DHT22;1333;50.958;6.770;2024-02-16T09:03:36;15.00;99.90
2647;DHT22;1333;50.958;6.770;2024-02-16T09:06:04;15.10;99.90
2647;DHT22;1333;50.958;6.770;2024-02-16T09:08:29;15.20;99.90
2647;DHT22;1333;50.958;6.770;2024-02-16T09:10:59;15.40;99.90
2647;DHT22;1333;50.958;6.770;2024-02-16T09:13:24;15.40;99.90
2647;DHT22;1333;50.958;6.770;2024-02-16T09:15:50;15.40;99.90
2647;DHT22;1333;50.958;6.770;2024-02-16T09:18:17;15.40;99.90
2647;DHT22;1333;50.958;6.770;2024-02-16T09:20:42;15.40;99.90
2647;DHT22;1333;50.958;6.770;2024-02-16T09:23:08;15.40;99.90
2647;DHT22;1333;50.958;6.770;2024-02-16T09:25:34;15.40;99.90
2647;DHT22;1333;50.958;6.770;2024-02-16T09:28:00;15.30;99.90
2647;DHT22;1333;50.958;6.770;2024-02-16T09:30:26;15.20;99.90
2647;DHT22;1333;50.958;6.770;2024-02-16T09:32:51;15.30;99.90
2647;DHT22;1333;50.958;6.770;2024-02-16T09:35:17;15.40;99.90
2647;DHT22;1333;50.958;6.770;2024-02-16T09:37:43;15.70;99.90
2647;DHT22;1333;50.958;6.770;2024-02-16T09:40:11;16.00;99.90
2647;DHT22;1333;50.958;6.770;2024-02-16T09:42:38;16.10;99.90
2647;DHT22;1333;50.958;6.770;2024-02-16T09:45:07;16.20;99.90
2647;DHT22;1333;50.958;6.770;2024-02-16T09:47:33;16.30;99.90
2647;DHT22;1333;50.958;6.770;2024-02-16T09:50:00;16.10;99.90
2647;DHT22;1333;50.958;6.770;2024-02-16T09:52:26;16.10;99.90
2647;DHT22;1333;50.958;6.770;2024-02-16T09:54:52;16.10;99.90
2647;DHT22;1333;50.958;6.770;2024-02-16T09:57:18;16.00;99.90
2647;DHT22;1333;50.958;6.770;2024-02-16T09:59:44;15.80;99.90
2647;DHT22;1333;50.958;6.770;2024-02-16T10:02:09;15.80;99.90
2647;DHT22;1333;50.958;6.770;2024-02-16T10:04:35;15.70;99.90
2647;DHT22;1333;50.958;6.770;2024-02-16T10:07:01;15.60;99.90
2647;DHT22;1333;50.958;6.770;2024-02-16T10:09:28;15.60;99.90
2647;DHT22;1333;50.958;6.770;2024-02-16T10:11:59;15.70;99.90
2647;DHT22;1333;50.958;6.770;2024-02-16T10:14:25;15.70;99.90
2647;DHT22;1333;50.958;6.770;2024-02-16T10:17:02;15.90;99.90
2647;DHT22;1333;50.958;6.770;2024-02-16T10:19:28;16.00;99.90
2647;DHT22;1333;50.958;6.770;2024-02-16T10:22:06;15.90;99.90
2647;DHT22;1333;50.958;6.770;2024-02-16T10:24:32;15.90;99.90
2647;DHT22;1333;50.958;6.770;2024-02-16T10:26:58;15.80;99.90
2647;DHT22;1333;50.958;6.770;2024-02-16T10:29:24;15.80;99.90
2647;DHT22;1333;50.958;6.770;2024-02-16T10:31:52;15.70;99.90
2647;DHT22;1333;50.958;6.770;2024-02-16T10:34:18;15.70;99.90
2647;DHT22;1333;50.958;6.770;2024-02-16T10:36:44;15.70;99.90
2647;DHT22;1333;50.958;6.770;2024-02-16T10:39:10;15.60;99.90
2647;DHT22;1333;50.958;6.770;2024-02-16T10:41:41;15.60;99.90
2647;DHT22;1333;50.958;6.770;2024-02-16T10:44:07;15.70;99.90
2647;DHT22;1333;50.958;6.770;2024-02-16T10:46:33;15.80;99.90
2647;DHT22;1333;50.958;6.770;2024-02-16T10:48:59;15.90;99.90
2647;DHT22;1333;50.958;6.770;2024-02-16T10:51:47;15.90;99.90
2647;DHT22;1333;50.958;6.770;2024-02-16T10:54:15;16.00;99.90
2647;DHT22;1333;50.958;6.770;2024-02-16T10:56:42;16.10;99.90
2647;DHT22;1333;50.958;6.770;2024-02-16T10:59:09;16.00;99.90
2647;DHT22;1333;50.958;6.770;2024-02-16T11:01:40;16.10;99.90
2647;DHT22;1333;50.958;6.770;2024-02-16T11:04:18;16.00;99.90
2647;DHT22;1333;50.958;6.770;2024-02-16T11:06:52;16.00;99.90
2647;DHT22;1333;50.958;6.770;2024-02-16T11:09:28;16.10;99.90
2647;DHT22;1333;50.958;6.770;2024-02-16T11:11:58;16.20;99.90
2647;DHT22;1333;50.958;6.770;2024-02-16T11:14:51;16.20;99.90
2647;DHT22;1333;50.958;6.770;2024-02-16T11:17:23;16.30;99.90
2647;DHT22;1333;50.958;6.770;2024-02-16T11:19:49;16.40;99.90
2647;DHT22;1333;50.958;6.770;2024-02-16T11:22:19;16.40;99.90
2647;DHT22;1333;50.958;6.770;2024-02-16T11:24:49;16.50;99.90
2647;DHT22;1333;50.958;6.770;2024-02-16T11:27:16;16.60;99.90
2647;DHT22;1333;50.958;6.770;2024-02-16T11:29:44;16.70;99.90
2647;DHT22;1333;50.958;6.770;2024-02-16T11:32:10;16.80;99.90
2647;DHT22;1333;50.958;6.770;2024-02-16T11:34:36;16.90;99.90
2647;DHT22;1333;50.958;6.770;2024-02-16T11:37:04;16.90;99.90
2647;DHT22;1333;50.958;6.770;2024-02-16T11:39:30;16.90;99.90
2647;DHT22;1333;50.958;6.770;2024-02-16T11:44:30;17.00;99.90
2647;DHT22;1333;50.958;6.770;2024-02-16T11:46:57;17.00;99.90
2647;DHT22;1333;50.958;6.770;2024-02-16T11:49:23;17.00;99.90
2647;DHT22;1333;50.958;6.770;2024-02-16T11:51:49;17.10;99.90
2647;DHT22;1333;50.958;6.770;2024-02-16T11:54:14;17.10;99.90
2647;DHT22;1333;50.958;6.770;2024-02-16T11:56:43;16.90;99.90
2647;DHT22;1333;50.958;6.770;2024-02-16T11:59:15;16.90;99.90
2647;DHT22;1333;50.958;6.770;2024-02-16T12:01:51;16.70;99.90
2647;DHT22;1333;50.958;6.770;2024-02-16T12:06:46;16.60;99.90
2647;DHT22;1333;50.958;6.770;2024-02-16T12:09:15;16.50;99.90
2647;DHT22;1333;50.958;6.770;2024-02-16T12:11:42;16.40;99.90
2647;DHT22;1333;50.958;6.770;2024-02-16T12:14:07;16.30;99.90
2647;DHT22;1333;50.958;6.770;2024-02-16T12:16:33;16.30;99.90
2647;DHT22;1333;50.958;6.770;2024-02-16T12:19:05;16.20;99.90
2647;DHT22;1333;50.958;6.770;2024-02-16T12:21:31;16.20;99.90
2647;DHT22;1333;50.958;6.770;2024-02-16T12:23:57;16.10;99.90
2647;DHT22;1333;50.958;6.770;2024-02-16T12:26:22;16.00;99.90
2647;DHT22;1333;50.958;6.770;2024-02-16T12:28:48;15.90;99.90
2647;DHT22;1333;50.958;6.770;2024-02-16T12:31:23;15.80;99.90
2647;DHT22;1333;50.958;6.770;2024-02-16T12:33:49;15.90;99.90
2647;DHT22;1333;50.958;6.770;2024-02-16T12:36:15;15.90;99.90
2647;DHT22;1333;50.958;6.770;2024-02-16T12:38:40;15.90;99.90
2647;DHT22;1333;50.958;6.770;2024-02-16T12:41:06;15.80;99.90
2647;DHT22;1333;50.958;6.770;2024-02-16T12:43:32;15.60;99.90
2647;DHT22;1333;50.958;6.770;2024-02-16T12:45:57;15.50;99.90
2647;DHT22;1333;50.958;6.770;2024-02-16T12:48:27;15.50;99.90
2647;DHT22;1333;50.958;6.770;2024-02-16T12:50:52;15.40;99.90
2647;DHT22;1333;50.958;6.770;2024-02-16T12:53:18;15.30;99.90
2647;DHT22;1333;50.958;6.770;2024-02-16T12:55:44;15.10;99.90
2647;DHT22;1333;50.958;6.770;2024-02-16T12:58:09;15.10;99.90
2647;DHT22;1333;50.958;6.770;2024-02-16T13:00:35;15.10;99.90
2647;DHT22;1333;50.958;6.770;2024-02-16T13:03:00;15.10;99.90
2647;DHT22;1333;50.958;6.770;2024-02-16T13:05:26;15.00;99.90
2647;DHT22;1333;50.958;6.770;2024-02-16T13:07:52;15.00;99.90
2647;DHT22;1333;50.958;6.770;2024-02-16T13:10:18;15.00;99.90
2647;DHT22;1333;50.958;6.770;2024-02-16T13:12:44;15.10;99.90
2647;DHT22;1333;50.958;6.770;2024-02-16T13:15:09;15.10;99.90
2647;DHT22;1333;50.958;6.770;2024-02-16T13:17:35;15.10;99.90
2647;DHT22;1333;50.958;6.770;2024-02-16T13:20:01;15.20;99.90
2647;DHT22;1333;50.958;6.770;2024-02-16T13:22:36;15.20;99.90
2647;DHT22;1333;50.958;6.770;2024-02-16T13:25:05;15.20;99.90
2647;DHT22;1333;50.958;6.770;2024-02-16T13:27:32;15.20;99.90
2647;DHT22;1333;50.958;6.770;2024-02-16T13:29:57;15.30;99.90
2647;DHT22;1333;50.958;6.770;2024-02-16T13:32:23;15.30;99.90
2647;DHT22;1333;50.958;6.770;2024-02-16T13:34:49;15.30;99.90
2647;DHT22;1333;50.958;6.770;2024-02-16T13:37:14;15.30;99.90
2647;DHT22;1333;50.958;6.770;2024-02-16T13:39:40;15.40;99.90
2647;DHT22;1333;50.958;6.770;2024-02-16T13:42:05;15.40;99.90
2647;DHT22;1333;50.958;6.770;2024-02-16T13:44:31;15.30;99.90
2647;DHT22;1333;50.958;6.770;2024-02-16T13:46:57;15.20;99.90
2647;DHT22;1333;50.958;6.770;2024-02-16T13:49:23;15.10;99.90
2647;DHT22;1333;50.958;6.770;2024-02-16T13:51:48;15.20;99.90
2647;DHT22;1333;50.958;6.770;2024-02-16T13:54:14;15.10;99.90
2647;DHT22;1333;50.958;6.770;2024-02-16T13:56:39;15.10;99.90
2647;DHT22;1333;50.958;6.770;2024-02-16T13:59:05;15.20;99.90
2647;DHT22;1333;50.958;6.770;2024-02-16T14:01:33;15.20;99.90
2647;DHT22;1333;50.958;6.770;2024-02-16T14:03:59;15.10;99.90
2647;DHT22;1333;50.958;6.770;2024-02-16T14:06:24;15.10;99.90
2647;DHT22;1333;50.958;6.770;2024-02-16T14:08:50;15.20;99.90
2647;DHT22;1333;50.958;6.770;2024-02-16T14:11:18;15.20;99.90
2647;DHT22;1333;50.958;6.770;2024-02-16T14:13:43;15.30;99.90
2647;DHT22;1333;50.958;6.770;2024-02-16T14:16:09;15.40;99.90
2647;DHT22;1333;50.958;6.770;2024-02-16T14:18:36;15.40;99.90
2647;DHT22;1333;50.958;6.770;2024-02-16T14:21:02;15.50;99.90
2647;DHT22;1333;50.958;6.770;2024-02-16T14:23:28;15.40;99.90
2647;DHT22;1333;50.958;6.770;2024-02-16T14:25:54;15.30;99.90
2647;DHT22;1333;50.958;6.770;2024-02-16T14:28:20;15.30;99.90
2647;DHT22;1333;50.958;6.770;2024-02-16T14:30:45;15.30;99.90
2647;DHT22;1333;50.958;6.770;2024-02-16T14:33:11;15.30;99.90
2647;DHT22;1333;50.958;6.770;2024-02-16T14:35:37;15.30;99.90
2647;DHT22;1333;50.958;6.770;2024-02-16T14:38:05;15.40;99.90
2647;DHT22;1333;50.958;6.770;2024-02-16T14:40:31;15.30;99.90
2647;DHT22;1333;50.958;6.770;2024-02-16T14:42:58;15.30;99.90
2647;DHT22;1333;50.958;6.770;2024-02-16T14:45:23;15.30;99.90
2647;DHT22;1333;50.958;6.770;2024-02-16T14:47:50;15.30;99.90
2647;DHT22;1333;50.958;6.770;2024-02-16T14:50:16;15.30;99.90
2647;DHT22;1333;50.958;6.770;2024-02-16T14:52:42;15.10;99.90
2647;DHT22;1333;50.958;6.770;2024-02-16T14:55:09;15.00;99.90
2647;DHT22;1333;50.958;6.770;2024-02-16T14:57:39;15.00;99.90
2647;DHT22;1333;50.958;6.770;2024-02-16T15:00:08;15.10;99.90
2647;DHT22;1333;50.958;6.770;2024-02-16T15:02:34;15.10;99.90
2647;DHT22;1333;50.958;6.770;2024-02-16T15:05:01;15.10;99.90
2647;DHT22;1333;50.958;6.770;2024-02-16T15:07:27;15.10;99.90
2647;DHT22;1333;50.958;6.770;2024-02-16T15:09:52;15.00;99.90
2647;DHT22;1333;50.958;6.770;2024-02-16T15:12:18;14.90;99.90
2647;DHT22;1333;50.958;6.770;2024-02-16T15:14:47;14.80;99.90
2647;DHT22;1333;50.958;6.770;2024-02-16T15:17:13;14.70;99.90
2647;DHT22;1333;50.958;6.770;2024-02-16T15:19:39;14.80;99.90
2647;DHT22;1333;50.958;6.770;2024-02-16T15:22:04;14.60;99.90
2647;DHT22;1333;50.958;6.770;2024-02-16T15:24:30;14.70;99.90
2647;DHT22;1333;50.958;6.770;2024-02-16T15:26:55;14.70;99.90
2647;DHT22;1333;50.958;6.770;2024-02-16T15:29:21;14.60;99.90
2647;DHT22;1333;50.958;6.770;2024-02-16T15:31:46;14.70;99.90
2647;DHT22;1333;50.958;6.770;2024-02-16T15:34:12;14.70;99.90
2647;DHT22;1333;50.958;6.770;2024-02-16T15:36:39;14.70;99.90
2647;DHT22;1333;50.958;6.770;2024-02-16T15:39:04;14.70;99.90
2647;DHT22;1333;50.958;6.770;2024-02-16T15:41:30;14.70;99.90
2647;DHT22;1333;50.958;6.770;2024-02-16T15:43:56;14.60;99.90
2647;DHT22;1333;50.958;6.770;2024-02-16T15:46:22;14.60;99.90
2647;DHT22;1333;50.958;6.770;2024-02-16T15:48:47;14.60;99.90
2647;DHT22;1333;50.958;6.770;2024-02-16T15:51:14;14.60;99.90
2647;DHT22;1333;50.958;6.770;2024-02-16T15:53:39;14.60;99.90
2647;DHT22;1333;50.958;6.770;2024-02-16T15:56:05;14.60;99.90
2647;DHT22;1333;50.958;6.770;2024-02-16T15:58:31;14.60;99.90
2647;DHT22;1333;50.958;6.770;2024-02-16T16:00:57;14.60;99.90
2647;DHT22;1333;50.958;6.770;2024-02-16T16:03:23;14.60;99.90